PWSweather.com
Personal Weather Stations
Station Observations
IMAZOWIE6
WarszawaPL

WarszawaPL

Lat: 52.27957, Lon: 21.05489

Elevation: 100

Station Type: WS1080

http://stacjapogody.waw.pl/

High Low Average
Temperature 40.1°F4.5°C 34.9°F1.6°C 38.0°F3.3°C
Dew Point -2.7°F-19.3°C -169.3°F-111.8°C -117.9°F-83.3°C
Winds 4.0 mph 6.4 kmh Calm Calm 1.0 mph N1.6 kmh N
Wind Gusts 6.8 mph10.9 kmh -- 2.0 mph3.2 kmh
Humidity 16% 10% 15%
Pressure 29.14 in986.8 mb 29.00 in982.1 mb -
Precipitation 0.00 in0.0 mm - -
Hour Temp Dew Point Humidity Winds Wind Gusts Pressure Precip Precip Rate Daily Precip Total
12:01 AM 38.8°F3.8°C -168.9°F-111.6°C - 0.6 mph N1.0 kmh N 3.4 mph5.5 kmh 29.03 in983.1 mb 0.00 in0.0 mm 0.00 in0.0 mm 0.00 in0.0 mm
12:16 AM 39.0°F3.9°C -168.9°F-111.6°C - 2.0 mph N3.2 kmh N 5.4 mph8.7 kmh 29.02 in982.7 mb 0.00 in0.0 mm 0.00 in0.0 mm 0.00 in0.0 mm
12:31 AM 39.2°F4.0°C -168.9°F-111.6°C - 1.4 mph N2.3 kmh N 3.4 mph5.5 kmh 29.02 in982.7 mb 0.00 in0.0 mm 0.00 in0.0 mm 0.00 in0.0 mm
12:46 AM 39.6°F4.2°C -168.8°F-111.6°C - 2.0 mph N3.2 kmh N 6.8 mph10.9 kmh 29.02 in982.7 mb 0.00 in0.0 mm 0.00 in0.0 mm 0.00 in0.0 mm
01:01 AM 39.6°F4.2°C -168.8°F-111.6°C - 4.0 mph N6.4 kmh N 6.8 mph10.9 kmh 29.02 in982.7 mb 0.00 in0.0 mm 0.00 in0.0 mm 0.00 in0.0 mm
01:16 AM 39.6°F4.2°C -168.8°F-111.6°C - 1.4 mph N2.3 kmh N 6.2 mph10.0 kmh 29.02 in982.7 mb 0.00 in0.0 mm 0.00 in0.0 mm 0.00 in0.0 mm
01:31 AM 39.0°F3.9°C -168.9°F-111.6°C - 2.0 mph N3.2 kmh N 4.8 mph7.7 kmh 29.03 in983.1 mb 0.00 in0.0 mm 0.00 in0.0 mm 0.00 in0.0 mm
01:46 AM 39.2°F4.0°C -168.9°F-111.6°C - 2.8 mph N4.5 kmh N 4.8 mph7.7 kmh 29.03 in983.1 mb 0.00 in0.0 mm 0.00 in0.0 mm 0.00 in0.0 mm
02:01 AM 39.6°F4.2°C -168.8°F-111.6°C - 2.8 mph N4.5 kmh N 6.2 mph10.0 kmh 29.03 in983.1 mb 0.00 in0.0 mm 0.00 in0.0 mm 0.00 in0.0 mm
02:16 AM 39.7°F4.3°C -168.8°F-111.6°C - 2.0 mph N3.2 kmh N 4.0 mph6.4 kmh 29.04 in983.4 mb 0.00 in0.0 mm 0.00 in0.0 mm 0.00 in0.0 mm
02:31 AM 39.6°F4.2°C -168.8°F-111.6°C - 2.0 mph N3.2 kmh N 4.8 mph7.7 kmh 29.03 in983.1 mb 0.00 in0.0 mm 0.00 in0.0 mm 0.00 in0.0 mm
02:46 AM 39.4°F4.1°C -168.9°F-111.6°C - 1.4 mph N2.3 kmh N 4.0 mph6.4 kmh 29.03 in983.1 mb 0.00 in0.0 mm 0.00 in0.0 mm 0.00 in0.0 mm
03:01 AM 39.2°F4.0°C -168.9°F-111.6°C - 2.0 mph N3.2 kmh N 5.4 mph8.7 kmh 29.03 in983.1 mb 0.00 in0.0 mm 0.00 in0.0 mm 0.00 in0.0 mm
03:16 AM 38.8°F3.8°C -168.9°F-111.6°C - 1.4 mph N2.3 kmh N 2.8 mph4.5 kmh 29.03 in983.1 mb 0.00 in0.0 mm 0.00 in0.0 mm 0.00 in0.0 mm
03:31 AM 38.5°F3.6°C -169.0°F-111.7°C - Calm Calm 1.4 mph2.3 kmh 29.03 in983.1 mb 0.00 in0.0 mm 0.00 in0.0 mm 0.00 in0.0 mm
03:46 AM 38.5°F3.6°C -169.0°F-111.7°C - Calm Calm 2.0 mph3.2 kmh 29.03 in983.1 mb 0.00 in0.0 mm 0.00 in0.0 mm 0.00 in0.0 mm
04:01 AM 38.5°F3.6°C -169.0°F-111.7°C - 0.6 mph N1.0 kmh N 2.0 mph3.2 kmh 29.04 in983.4 mb 0.00 in0.0 mm 0.00 in0.0 mm 0.00 in0.0 mm
04:16 AM 38.8°F3.8°C -168.9°F-111.6°C - 2.0 mph N3.2 kmh N 5.4 mph8.7 kmh 29.05 in983.7 mb 0.00 in0.0 mm 0.00 in0.0 mm 0.00 in0.0 mm
04:31 AM 38.5°F3.6°C -169.0°F-111.7°C - Calm Calm 0.6 mph1.0 kmh 29.05 in983.7 mb 0.00 in0.0 mm 0.00 in0.0 mm 0.00 in0.0 mm
04:46 AM 38.7°F3.7°C -168.9°F-111.6°C - 0.6 mph N1.0 kmh N 4.0 mph6.4 kmh 29.05 in983.7 mb 0.00 in0.0 mm 0.00 in0.0 mm 0.00 in0.0 mm
05:01 AM 38.3°F3.5°C -169.0°F-111.7°C - Calm Calm 2.0 mph3.2 kmh 29.05 in983.7 mb 0.00 in0.0 mm 0.00 in0.0 mm 0.00 in0.0 mm
05:16 AM 38.3°F3.5°C -169.0°F-111.7°C - 1.4 mph N2.3 kmh N 4.8 mph7.7 kmh 29.05 in983.7 mb 0.00 in0.0 mm 0.00 in0.0 mm 0.00 in0.0 mm
05:31 AM 37.9°F3.3°C -169.0°F-111.7°C - Calm Calm 1.4 mph2.3 kmh 29.04 in983.4 mb 0.00 in0.0 mm 0.00 in0.0 mm 0.00 in0.0 mm
05:46 AM 37.2°F2.9°C -169.1°F-111.7°C - Calm Calm 2.0 mph3.2 kmh 29.04 in983.4 mb 0.00 in0.0 mm 0.00 in0.0 mm 0.00 in0.0 mm
06:01 AM 36.9°F2.7°C -169.1°F-111.7°C - Calm Calm -- 29.05 in983.7 mb 0.00 in0.0 mm 0.00 in0.0 mm 0.00 in0.0 mm
06:16 AM 36.3°F2.4°C -169.2°F-111.8°C - Calm Calm 0.6 mph1.0 kmh 29.05 in983.7 mb 0.00 in0.0 mm 0.00 in0.0 mm 0.00 in0.0 mm
06:31 AM 36.0°F2.2°C -169.2°F-111.8°C - Calm Calm -- 29.06 in984.1 mb 0.00 in0.0 mm 0.00 in0.0 mm 0.00 in0.0 mm
06:46 AM 36.3°F2.4°C -169.2°F-111.8°C - Calm Calm 2.0 mph3.2 kmh 29.06 in984.1 mb 0.00 in0.0 mm 0.00 in0.0 mm 0.00 in0.0 mm
07:01 AM 35.8°F2.1°C -169.2°F-111.8°C - Calm Calm 0.6 mph1.0 kmh 29.06 in984.1 mb 0.00 in0.0 mm 0.00 in0.0 mm 0.00 in0.0 mm
07:16 AM 35.6°F2.0°C -169.2°F-111.8°C - Calm Calm 0.6 mph1.0 kmh 29.06 in984.1 mb 0.00 in0.0 mm 0.00 in0.0 mm 0.00 in0.0 mm
07:31 AM 35.4°F1.9°C -169.3°F-111.8°C - Calm Calm -- 29.06 in984.1 mb 0.00 in0.0 mm 0.00 in0.0 mm 0.00 in0.0 mm
07:46 AM 34.9°F1.6°C -169.3°F-111.8°C - Calm Calm 0.6 mph1.0 kmh 29.06 in984.1 mb 0.00 in0.0 mm 0.00 in0.0 mm 0.00 in0.0 mm
08:01 AM 35.1°F1.7°C -169.3°F-111.8°C - Calm Calm -- 29.06 in984.1 mb 0.00 in0.0 mm 0.00 in0.0 mm 0.00 in0.0 mm
08:16 AM 35.2°F1.8°C -169.3°F-111.8°C - Calm Calm -- 29.06 in984.1 mb 0.01 in0.3 mm 0.05 in1.3 mm 0.01 in0.3 mm
08:31 AM 35.4°F1.9°C -169.3°F-111.8°C - Calm Calm 0.6 mph1.0 kmh 29.06 in984.1 mb 0.01 in0.3 mm 0.00 in0.0 mm 0.01 in0.3 mm
08:46 AM 35.2°F1.8°C -169.3°F-111.8°C - 0.6 mph N1.0 kmh N 2.8 mph4.5 kmh 29.06 in984.1 mb 0.01 in0.3 mm 0.00 in0.0 mm 0.01 in0.3 mm
09:01 AM 35.4°F1.9°C -169.3°F-111.8°C - Calm Calm 1.4 mph2.3 kmh 29.07 in984.4 mb 0.01 in0.3 mm 0.00 in0.0 mm 0.01 in0.3 mm
09:16 AM 35.6°F2.0°C -169.2°F-111.8°C - Calm Calm -- 29.07 in984.4 mb 0.00 in0.0 mm 0.00 in0.0 mm 0.01 in0.3 mm
09:31 AM 36.0°F2.2°C -169.2°F-111.8°C - Calm Calm -- 29.07 in984.4 mb 0.00 in0.0 mm 0.00 in0.0 mm 0.01 in0.3 mm
09:46 AM 36.0°F2.2°C -169.2°F-111.8°C - Calm Calm -- 29.07 in984.4 mb 0.00 in0.0 mm 0.00 in0.0 mm 0.01 in0.3 mm
10:01 AM 36.5°F2.5°C -169.2°F-111.8°C - Calm Calm 0.6 mph1.0 kmh 29.07 in984.4 mb 0.00 in0.0 mm 0.00 in0.0 mm 0.01 in0.3 mm
10:16 AM 36.9°F2.7°C -169.1°F-111.7°C - 0.6 mph N1.0 kmh N 3.4 mph5.5 kmh 29.07 in984.4 mb 0.00 in0.0 mm 0.00 in0.0 mm 0.01 in0.3 mm
10:31 AM 37.0°F2.8°C -169.1°F-111.7°C - Calm Calm 1.4 mph2.3 kmh 29.07 in984.4 mb 0.00 in0.0 mm 0.00 in0.0 mm 0.01 in0.3 mm
10:46 AM 37.6°F3.1°C -169.0°F-111.7°C - Calm Calm 3.4 mph5.5 kmh 29.06 in984.1 mb 0.00 in0.0 mm 0.00 in0.0 mm 0.01 in0.3 mm
11:01 AM 37.6°F3.1°C -169.0°F-111.7°C - Calm Calm 2.0 mph3.2 kmh 29.05 in983.7 mb 0.00 in0.0 mm 0.00 in0.0 mm 0.01 in0.3 mm
11:16 AM 37.9°F3.3°C -169.0°F-111.7°C - Calm Calm 3.4 mph5.5 kmh 29.05 in983.7 mb 0.00 in0.0 mm 0.00 in0.0 mm 0.01 in0.3 mm
11:31 AM 37.9°F3.3°C -169.0°F-111.7°C - Calm Calm 4.0 mph6.4 kmh 29.05 in983.7 mb 0.00 in0.0 mm 0.00 in0.0 mm 0.01 in0.3 mm
11:46 AM 38.3°F3.5°C -169.0°F-111.7°C - Calm Calm 0.6 mph1.0 kmh 29.05 in983.7 mb 0.00 in0.0 mm 0.00 in0.0 mm 0.01 in0.3 mm
12:01 PM 38.5°F3.6°C -169.0°F-111.7°C - Calm Calm 0.6 mph1.0 kmh 29.04 in983.4 mb 0.00 in0.0 mm 0.00 in0.0 mm 0.01 in0.3 mm
12:16 PM 38.3°F3.5°C -169.0°F-111.7°C - Calm Calm 0.6 mph1.0 kmh 29.04 in983.4 mb 0.00 in0.0 mm 0.00 in0.0 mm 0.01 in0.3 mm
12:31 PM 38.3°F3.5°C -169.0°F-111.7°C - Calm Calm 0.6 mph1.0 kmh 29.04 in983.4 mb 0.00 in0.0 mm 0.00 in0.0 mm 0.01 in0.3 mm
12:46 PM 38.1°F3.4°C -169.0°F-111.7°C - Calm Calm -- 29.03 in983.1 mb 0.01 in0.3 mm 0.05 in1.3 mm 0.02 in0.5 mm
01:01 PM 37.9°F3.3°C -169.0°F-111.7°C - Calm Calm -- 29.03 in983.1 mb 0.01 in0.3 mm 0.00 in0.0 mm 0.02 in0.5 mm
01:16 PM 37.9°F3.3°C -169.0°F-111.7°C - Calm Calm -- 29.02 in982.7 mb 0.00 in0.0 mm 0.00 in0.0 mm 0.02 in0.5 mm
01:31 PM 37.9°F3.3°C -169.0°F-111.7°C - Calm Calm -- 29.02 in982.7 mb 0.01 in0.3 mm 0.05 in1.3 mm 0.04 in1.0 mm
01:46 PM 37.9°F3.3°C -169.0°F-111.7°C - Calm Calm -- 29.02 in982.7 mb 0.01 in0.3 mm 0.00 in0.0 mm 0.04 in1.0 mm
02:01 PM 38.1°F3.4°C -169.0°F-111.7°C - Calm Calm -- 29.02 in982.7 mb 0.01 in0.3 mm 0.00 in0.0 mm 0.04 in1.0 mm
02:16 PM 37.9°F3.3°C -169.0°F-111.7°C - Calm Calm 0.6 mph1.0 kmh 29.01 in982.4 mb 0.01 in0.3 mm 0.00 in0.0 mm 0.04 in1.0 mm
02:31 PM 37.9°F3.3°C -169.0°F-111.7°C - Calm Calm -- 29.02 in982.7 mb 0.01 in0.3 mm 0.00 in0.0 mm 0.04 in1.0 mm
02:46 PM 37.9°F3.3°C -169.0°F-111.7°C - Calm Calm -- 29.01 in982.4 mb 0.02 in0.5 mm 0.05 in1.3 mm 0.05 in1.3 mm
03:01 PM 37.8°F3.2°C -169.0°F-111.7°C - Calm Calm -- 29.00 in982.1 mb 0.02 in0.5 mm 0.00 in0.0 mm 0.05 in1.3 mm
03:16 PM 38.1°F3.4°C -169.0°F-111.7°C - Calm Calm -- 29.00 in982.1 mb 0.01 in0.3 mm 0.00 in0.0 mm 0.05 in1.3 mm
03:31 PM 38.1°F3.4°C -169.0°F-111.7°C - Calm Calm 0.6 mph1.0 kmh 29.01 in982.4 mb 0.01 in0.3 mm 0.00 in0.0 mm 0.05 in1.3 mm
03:46 PM 38.3°F3.5°C -169.0°F-111.7°C - Calm Calm 0.6 mph1.0 kmh 29.01 in982.4 mb 0.02 in0.5 mm 0.05 in1.3 mm 0.06 in1.5 mm
04:01 PM 38.3°F3.5°C -169.0°F-111.7°C - Calm Calm 0.6 mph1.0 kmh 29.01 in982.4 mb 0.04 in1.0 mm 0.02 in0.5 mm 0.07 in1.8 mm
04:16 PM 38.5°F3.6°C -169.0°F-111.7°C - Calm Calm 0.6 mph1.0 kmh 29.00 in982.1 mb 0.00 in0.0 mm 0.00 in0.0 mm 0.07 in1.8 mm
04:31 PM 38.7°F3.7°C -13.3°F-25.2°C 10% Calm Calm 1.4 mph2.3 kmh 29.00 in982.1 mb 0.00 in0.0 mm 0.00 in0.0 mm 0.07 in1.8 mm
04:46 PM 38.7°F3.7°C -11.4°F-24.1°C 11% Calm Calm 0.6 mph1.0 kmh 29.00 in982.1 mb 0.01 in0.3 mm 0.05 in1.3 mm 0.09 in2.3 mm
05:01 PM 39.0°F3.9°C -7.8°F-22.1°C 13% Calm Calm -- 29.00 in982.1 mb 0.01 in0.3 mm 0.00 in0.0 mm 0.09 in2.3 mm
05:16 PM 39.0°F3.9°C -6.3°F-21.3°C 14% Calm Calm 2.0 mph3.2 kmh 29.00 in982.1 mb 0.00 in0.0 mm 0.00 in0.0 mm 0.09 in2.3 mm
05:31 PM 39.2°F4.0°C -6.1°F-21.2°C 14% Calm Calm -- 29.00 in982.1 mb 0.00 in0.0 mm 0.00 in0.0 mm 0.09 in2.3 mm
05:56 PM 39.0°F3.9°C -4.9°F-20.5°C 15% Calm Calm 1.4 mph2.3 kmh 29.00 in982.1 mb 0.00 in0.0 mm 0.00 in0.0 mm 0.09 in2.3 mm
06:01 PM 39.0°F3.9°C -4.9°F-20.5°C 15% Calm Calm 2.0 mph3.2 kmh 29.00 in982.1 mb 0.00 in0.0 mm 0.00 in0.0 mm 0.09 in2.3 mm
06:16 PM 39.0°F3.9°C -4.9°F-20.5°C 15% Calm Calm 2.0 mph3.2 kmh 29.00 in982.1 mb 0.00 in0.0 mm 0.00 in0.0 mm 0.09 in2.3 mm
06:31 PM 39.4°F4.1°C -3.3°F-19.6°C 16% Calm Calm 2.0 mph3.2 kmh 29.01 in982.4 mb 0.00 in0.0 mm 0.00 in0.0 mm 0.09 in2.3 mm
06:46 PM 39.6°F4.2°C -3.1°F-19.5°C 16% 0.6 mph N1.0 kmh N 2.8 mph4.5 kmh 29.01 in982.4 mb 0.00 in0.0 mm 0.00 in0.0 mm 0.09 in2.3 mm
07:01 PM 39.6°F4.2°C -3.1°F-19.5°C 16% Calm Calm 0.6 mph1.0 kmh 29.02 in982.7 mb 0.00 in0.0 mm 0.00 in0.0 mm 0.09 in2.3 mm
07:16 PM 39.7°F4.3°C -3.0°F-19.4°C 16% Calm Calm 2.0 mph3.2 kmh 29.02 in982.7 mb 0.00 in0.0 mm 0.00 in0.0 mm 0.09 in2.3 mm
07:31 PM 39.9°F4.4°C -2.8°F-19.3°C 16% 0.6 mph N1.0 kmh N 2.0 mph3.2 kmh 29.02 in982.7 mb 0.00 in0.0 mm 0.00 in0.0 mm 0.09 in2.3 mm
07:46 PM 39.9°F4.4°C -2.8°F-19.3°C 16% 0.6 mph N1.0 kmh N 4.0 mph6.4 kmh 29.03 in983.1 mb 0.00 in0.0 mm 0.00 in0.0 mm 0.09 in2.3 mm
08:01 PM 40.1°F4.5°C -2.7°F-19.3°C 16% Calm Calm 2.8 mph4.5 kmh 29.04 in983.4 mb 0.00 in0.0 mm 0.00 in0.0 mm 0.09 in2.3 mm
08:16 PM 39.7°F4.3°C -3.0°F-19.4°C 16% 2.0 mph N3.2 kmh N 6.2 mph10.0 kmh 29.05 in983.7 mb 0.00 in0.0 mm 0.00 in0.0 mm 0.09 in2.3 mm
08:31 PM 39.2°F4.0°C -3.4°F-19.7°C 16% 1.4 mph N2.3 kmh N 4.8 mph7.7 kmh 29.06 in984.1 mb 0.00 in0.0 mm 0.00 in0.0 mm 0.09 in2.3 mm
08:46 PM 38.8°F3.8°C -3.7°F-19.8°C 16% 2.0 mph N3.2 kmh N 4.0 mph6.4 kmh 29.06 in984.1 mb 0.00 in0.0 mm 0.00 in0.0 mm 0.09 in2.3 mm
09:01 PM 38.3°F3.5°C -5.5°F-20.8°C 15% 0.6 mph N1.0 kmh N 3.4 mph5.5 kmh 29.06 in984.1 mb 0.00 in0.0 mm 0.00 in0.0 mm 0.09 in2.3 mm
09:16 PM 38.1°F3.4°C -5.6°F-20.9°C 15% 0.6 mph N1.0 kmh N 2.8 mph4.5 kmh 29.07 in984.4 mb 0.00 in0.0 mm 0.00 in0.0 mm 0.09 in2.3 mm
09:31 PM 37.9°F3.3°C -5.8°F-21.0°C 15% Calm Calm 2.0 mph3.2 kmh 29.08 in984.8 mb 0.00 in0.0 mm 0.00 in0.0 mm 0.09 in2.3 mm
09:46 PM 37.8°F3.2°C -5.9°F-21.1°C 15% 1.4 mph N2.3 kmh N 2.8 mph4.5 kmh 29.09 in985.1 mb 0.00 in0.0 mm 0.00 in0.0 mm 0.09 in2.3 mm
10:01 PM 37.4°F3.0°C -6.2°F-21.2°C 15% 0.6 mph N1.0 kmh N 2.0 mph3.2 kmh 29.10 in985.4 mb 0.00 in0.0 mm 0.00 in0.0 mm 0.09 in2.3 mm
10:16 PM 37.2°F2.9°C -6.3°F-21.3°C 15% 1.4 mph N2.3 kmh N 4.0 mph6.4 kmh 29.09 in985.1 mb 0.00 in0.0 mm 0.00 in0.0 mm 0.09 in2.3 mm
10:31 PM 37.0°F2.8°C -6.5°F-21.4°C 15% Calm Calm 0.6 mph1.0 kmh 29.10 in985.4 mb 0.00 in0.0 mm 0.00 in0.0 mm 0.09 in2.3 mm
10:46 PM 36.7°F2.6°C -6.8°F-21.6°C 15% 0.6 mph N1.0 kmh N 2.8 mph4.5 kmh 29.10 in985.4 mb 0.00 in0.0 mm 0.00 in0.0 mm 0.09 in2.3 mm
11:01 PM 36.7°F2.6°C -6.8°F-21.6°C 15% 0.6 mph N1.0 kmh N 3.4 mph5.5 kmh 29.11 in985.8 mb 0.00 in0.0 mm 0.00 in0.0 mm 0.09 in2.3 mm
11:16 PM 36.9°F2.7°C -6.6°F-21.4°C 15% 0.6 mph N1.0 kmh N 2.0 mph3.2 kmh 29.12 in986.1 mb 0.00 in0.0 mm 0.00 in0.0 mm 0.09 in2.3 mm
11:31 PM 36.5°F2.5°C -6.9°F-21.6°C 15% 1.4 mph N2.3 kmh N 4.0 mph6.4 kmh 29.13 in986.5 mb 0.00 in0.0 mm 0.00 in0.0 mm 0.09 in2.3 mm
11:46 PM 36.3°F2.4°C -7.1°F-21.7°C 15% Calm Calm 0.6 mph1.0 kmh 29.14 in986.8 mb 0.00 in0.0 mm 0.00 in0.0 mm 0.09 in2.3 mm